createdAt,value
2022-08-25T00:01:50.267Z,4.15
2022-08-25T00:04:18.672Z,2.63
2022-08-25T00:06:45.653Z,3.15
2022-08-25T00:09:13.289Z,2.85
2022-08-25T00:11:40.458Z,3.75
2022-08-25T00:14:09.303Z,9.75
2022-08-25T00:16:35.794Z,4.43
2022-08-25T00:19:05.284Z,3.35
2022-08-25T00:21:32.079Z,5.88
2022-08-25T00:23:59.480Z,3.45
2022-08-25T00:26:27.610Z,4.22
2022-08-25T00:28:54.572Z,4.35
2022-08-25T00:31:38.879Z,3.35
2022-08-25T00:34:10.247Z,3.08
2022-08-25T00:36:37.585Z,4.30
2022-08-25T00:39:04.748Z,7.13
2022-08-25T00:41:31.703Z,3.72
2022-08-25T00:44:00.936Z,4.90
2022-08-25T00:46:36.715Z,4.00
2022-08-25T00:49:05.852Z,3.42
2022-08-25T00:51:34.341Z,3.28
2022-08-25T00:54:01.979Z,5.03
2022-08-25T00:56:29.261Z,11.40
2022-08-25T00:58:56.374Z,4.18
2022-08-25T01:01:22.930Z,4.25
2022-08-25T01:03:49.446Z,3.22
2022-08-25T01:06:16.063Z,4.13
2022-08-25T01:08:42.828Z,5.50
2022-08-25T01:11:10.395Z,4.80
2022-08-25T01:13:49.394Z,3.47
2022-08-25T01:16:16.584Z,3.60
2022-08-25T01:18:51.825Z,3.88
2022-08-25T01:21:19.670Z,3.20
2022-08-25T01:23:47.038Z,5.25
2022-08-25T01:26:16.437Z,3.55
2022-08-25T01:29:03.972Z,4.78
2022-08-25T01:31:31.282Z,4.00
2022-08-25T01:33:58.369Z,3.55
2022-08-25T01:36:25.969Z,3.97
2022-08-25T01:38:52.465Z,6.88
2022-08-25T01:41:27.502Z,3.92
2022-08-25T01:43:54.017Z,6.15
2022-08-25T01:46:20.623Z,3.25
2022-08-25T01:48:47.936Z,4.07
2022-08-25T01:51:15.786Z,4.55
2022-08-25T01:53:44.084Z,4.57
2022-08-25T01:56:11.818Z,5.45
2022-08-25T01:58:39.795Z,8.90
2022-08-25T02:01:09.111Z,2.88
2022-08-25T02:03:42.183Z,4.53
2022-08-25T02:06:08.966Z,6.10
2022-08-25T02:08:35.558Z,6.55
2022-08-25T02:11:02.086Z,3.38
2022-08-25T02:13:31.484Z,6.32
2022-08-25T02:16:00.721Z,3.72
2022-08-25T02:18:27.169Z,4.60
2022-08-25T02:20:54.212Z,5.57
2022-08-25T02:23:20.693Z,4.45
2022-08-25T02:25:47.436Z,7.38
2022-08-25T02:28:13.893Z,3.90
2022-08-25T02:30:40.968Z,5.15
2022-08-25T02:33:08.328Z,4.72
2022-08-25T02:35:34.988Z,5.03
2022-08-25T02:38:02.015Z,3.80
2022-08-25T02:40:28.546Z,6.07
2022-08-25T02:42:55.502Z,4.68
2022-08-25T02:45:21.998Z,4.72
2022-08-25T02:47:48.475Z,4.72
2022-08-25T02:50:14.932Z,5.47
2022-08-25T02:52:41.424Z,6.03
2022-08-25T02:55:09.759Z,3.97
2022-08-25T02:57:36.233Z,6.32
2022-08-25T03:00:03.025Z,4.43
2022-08-25T03:02:29.545Z,3.97
2022-08-25T03:04:57.239Z,3.83
2022-08-25T03:07:23.796Z,3.88
2022-08-25T03:09:51.267Z,4.47
2022-08-25T03:12:17.847Z,3.47
2022-08-25T03:14:44.468Z,3.15
2022-08-25T03:17:11.140Z,5.88
2022-08-25T03:19:37.648Z,5.07
2022-08-25T03:22:04.348Z,3.20
2022-08-25T03:24:30.786Z,5.10
2022-08-25T03:26:57.241Z,3.50
2022-08-25T03:29:24.998Z,3.60
2022-08-25T03:31:52.098Z,3.45
2022-08-25T03:34:19.612Z,6.80
2022-08-25T03:36:47.275Z,4.03
2022-08-25T03:39:14.121Z,3.90
2022-08-25T03:41:40.550Z,2.60
2022-08-25T03:44:07.871Z,5.35
2022-08-25T03:46:36.769Z,3.45
2022-08-25T03:49:03.908Z,4.65
2022-08-25T03:51:35.095Z,4.53
2022-08-25T03:54:02.083Z,6.47
2022-08-25T03:56:28.652Z,5.07
2022-08-25T03:58:55.666Z,3.80
2022-08-25T04:01:22.759Z,5.53
2022-08-25T04:03:49.362Z,5.55
2022-08-25T04:06:16.624Z,6.43
2022-08-25T04:08:43.116Z,5.15
2022-08-25T04:11:14.192Z,6.15
2022-08-25T04:13:42.370Z,4.82
2022-08-25T04:16:23.112Z,4.88
2022-08-25T04:18:50.665Z,5.05
2022-08-25T04:21:18.578Z,3.35
2022-08-25T04:23:45.951Z,4.07
2022-08-25T04:26:13.677Z,3.78
2022-08-25T04:28:40.590Z,4.95
2022-08-25T04:31:08.264Z,4.82
2022-08-25T04:33:35.229Z,5.30
2022-08-25T04:36:01.703Z,3.47
2022-08-25T04:38:28.203Z,4.90
2022-08-25T04:41:02.242Z,3.72
2022-08-25T04:43:30.185Z,4.07
2022-08-25T04:45:56.651Z,3.78
2022-08-25T04:48:23.505Z,3.58
2022-08-25T04:50:50.028Z,4.45
2022-08-25T04:53:17.150Z,4.32
2022-08-25T04:55:45.194Z,4.38
2022-08-25T04:58:16.494Z,6.13
2022-08-25T05:00:44.020Z,4.65
2022-08-25T05:03:10.613Z,4.55
2022-08-25T05:05:38.087Z,6.25
2022-08-25T05:08:05.231Z,5.90
2022-08-25T05:10:33.070Z,5.38
2022-08-25T05:12:59.814Z,6.05
2022-08-25T05:15:45.428Z,8.65
2022-08-25T05:18:13.368Z,11.82
2022-08-25T05:20:39.816Z,8.98
2022-08-25T05:23:06.271Z,9.02
2022-08-25T05:25:34.797Z,11.80
2022-08-25T05:28:01.384Z,12.70
2022-08-25T05:30:28.195Z,8.32
2022-08-25T05:32:54.729Z,6.57
2022-08-25T05:35:21.369Z,9.13
2022-08-25T05:37:47.869Z,8.15
2022-08-25T05:40:14.443Z,9.15
2022-08-25T05:42:40.980Z,13.75
2022-08-25T05:45:08.146Z,12.18
2022-08-25T05:47:34.900Z,11.55
2022-08-25T05:50:01.411Z,13.10
2022-08-25T05:52:30.899Z,12.13
2022-08-25T05:54:57.432Z,12.23
2022-08-25T05:57:24.717Z,9.55
2022-08-25T05:59:51.285Z,7.88
2022-08-25T06:02:36.309Z,8.52
2022-08-25T06:05:02.874Z,12.05
2022-08-25T06:07:29.773Z,7.78
2022-08-25T06:09:56.201Z,11.27
2022-08-25T06:12:22.697Z,14.02
2022-08-25T06:14:49.452Z,8.25
2022-08-25T06:17:16.196Z,8.35
2022-08-25T06:19:42.780Z,7.85
2022-08-25T06:22:10.319Z,9.85
2022-08-25T06:24:37.014Z,10.13
2022-08-25T06:27:03.623Z,12.35
2022-08-25T06:29:30.124Z,8.38
2022-08-25T06:31:56.671Z,6.68
2022-08-25T06:34:23.871Z,11.18
2022-08-25T06:36:51.000Z,8.07
2022-08-25T06:39:17.612Z,8.60
2022-08-25T06:41:44.210Z,7.55
2022-08-25T06:44:11.705Z,6.88
2022-08-25T06:46:38.925Z,6.78
2022-08-25T06:49:06.704Z,8.35
2022-08-25T06:51:35.619Z,7.25
2022-08-25T06:54:02.416Z,8.02
2022-08-25T06:56:28.934Z,10.02
2022-08-25T06:58:55.553Z,5.20
2022-08-25T07:01:25.917Z,5.00
2022-08-25T07:03:59.590Z,5.03
2022-08-25T07:06:27.850Z,6.63
2022-08-25T07:08:54.434Z,5.82
2022-08-25T07:11:24.205Z,3.60
2022-08-25T07:13:51.059Z,3.67
2022-08-25T07:16:18.397Z,5.93
2022-08-25T07:18:45.323Z,6.65
2022-08-25T07:21:12.879Z,6.03
2022-08-25T07:23:40.299Z,5.88
2022-08-25T07:26:33.673Z,7.20
2022-08-25T07:28:58.371Z,4.00
2022-08-25T07:31:24.989Z,6.10
2022-08-25T07:34:14.944Z,4.45
2022-08-25T07:36:43.102Z,6.65
2022-08-25T07:39:09.758Z,9.55
2022-08-25T07:41:37.765Z,8.43
2022-08-25T07:44:04.845Z,5.03
2022-08-25T07:46:31.357Z,7.22
2022-08-25T07:49:00.269Z,5.20
2022-08-25T07:53:58.164Z,4.78
2022-08-25T07:56:24.727Z,8.02
2022-08-25T07:58:51.189Z,5.10
2022-08-25T08:01:19.139Z,4.18
2022-08-25T08:03:51.100Z,4.78
2022-08-25T08:06:19.516Z,4.00
2022-08-25T08:08:49.156Z,5.45
2022-08-25T08:11:20.330Z,4.30
2022-08-25T08:13:48.137Z,5.57
2022-08-25T08:16:18.645Z,4.38
2022-08-25T08:18:45.823Z,5.05
2022-08-25T08:21:22.569Z,6.05
2022-08-25T08:23:50.037Z,4.35
2022-08-25T08:26:17.038Z,7.95
2022-08-25T08:28:43.550Z,3.95
2022-08-25T08:31:10.789Z,4.22
2022-08-25T08:33:40.854Z,4.80
2022-08-25T08:36:09.769Z,4.25
2022-08-25T08:38:36.913Z,4.80
2022-08-25T08:41:25.147Z,4.63
2022-08-25T08:43:56.285Z,5.75
2022-08-25T08:46:23.145Z,4.18
2022-08-25T08:49:05.532Z,5.80
2022-08-25T08:51:35.888Z,4.88
2022-08-25T08:54:15.526Z,4.80
2022-08-25T08:56:48.301Z,3.90
2022-08-25T08:59:29.965Z,4.43
2022-08-25T09:02:00.487Z,8.57
2022-08-25T09:04:37.101Z,5.95
2022-08-25T09:07:07.304Z,7.07
2022-08-25T09:09:37.133Z,4.38
2022-08-25T09:12:11.175Z,4.57
2022-08-25T09:14:53.694Z,4.03
2022-08-25T09:17:39.665Z,4.18
2022-08-25T09:20:18.154Z,5.13
2022-08-25T09:22:47.079Z,6.60
2022-08-25T09:25:22.151Z,3.95
2022-08-25T09:28:18.636Z,6.07
2022-08-25T09:30:51.546Z,9.02
2022-08-25T09:33:21.412Z,4.47
2022-08-25T09:35:49.819Z,3.38
2022-08-25T09:38:16.608Z,3.65
2022-08-25T09:40:45.326Z,3.17
2022-08-25T09:43:23.151Z,3.78
2022-08-25T09:45:59.606Z,6.22
2022-08-25T09:48:28.571Z,5.63
2022-08-25T09:51:12.389Z,4.18
2022-08-25T09:53:49.092Z,3.47
2022-08-25T09:56:18.989Z,3.72
2022-08-25T09:58:45.444Z,3.70
2022-08-25T10:01:14.238Z,3.95
2022-08-25T10:03:53.705Z,9.30
2022-08-25T10:06:20.746Z,6.15
2022-08-25T10:08:47.768Z,3.38
2022-08-25T10:11:28.984Z,5.88
2022-08-25T10:14:04.875Z,5.60
2022-08-25T10:16:36.191Z,8.32
2022-08-25T10:19:11.299Z,3.33
2022-08-25T10:21:39.225Z,3.03
2022-08-25T10:24:06.616Z,5.35
2022-08-25T10:26:42.949Z,3.65
2022-08-25T10:29:09.451Z,4.53
2022-08-25T10:31:45.581Z,6.68
2022-08-25T10:34:18.276Z,3.67
2022-08-25T10:37:06.464Z,5.55
2022-08-25T10:39:40.661Z,4.75
2022-08-25T10:42:26.291Z,4.72
2022-08-25T10:45:31.880Z,4.07
2022-08-25T10:47:58.639Z,3.63
2022-08-25T10:50:33.053Z,3.20
2022-08-25T10:53:20.956Z,3.50
2022-08-25T10:55:50.639Z,5.22
2022-08-25T10:58:23.282Z,5.47
2022-08-25T11:01:01.701Z,3.58
2022-08-25T11:03:47.030Z,3.63
2022-08-25T11:06:17.742Z,5.22
2022-08-25T11:08:47.795Z,3.60
2022-08-25T11:11:33.008Z,5.85
2022-08-25T11:14:11.367Z,12.10
2022-08-25T11:16:51.388Z,3.67
2022-08-25T11:19:20.712Z,5.22
2022-08-25T11:21:49.892Z,3.47
2022-08-25T11:24:28.965Z,4.85
2022-08-25T11:26:56.679Z,4.70
2022-08-25T11:29:25.321Z,4.32
2022-08-25T11:31:53.840Z,5.00
2022-08-25T11:34:21.436Z,4.80
2022-08-25T11:36:55.169Z,3.17
2022-08-25T11:39:25.174Z,3.47
2022-08-25T11:41:54.680Z,4.78
2022-08-25T11:44:53.102Z,3.13
2022-08-25T11:47:26.779Z,4.15
2022-08-25T11:49:58.125Z,5.03
2022-08-25T11:52:34.703Z,3.13
2022-08-25T11:55:23.172Z,2.97
2022-08-25T11:57:53.460Z,4.10
2022-08-25T12:00:38.913Z,2.92
2022-08-25T12:03:40.083Z,6.60
2022-08-25T12:06:06.555Z,4.03
2022-08-25T12:08:47.543Z,5.88
2022-08-25T12:11:34.095Z,3.65
2022-08-25T12:14:13.824Z,3.25
2022-08-25T12:17:00.418Z,3.63
2022-08-25T12:19:27.047Z,6.28
2022-08-25T12:22:19.073Z,2.83
2022-08-25T12:25:04.857Z,2.90
2022-08-25T12:27:51.651Z,3.25
2022-08-25T12:30:21.137Z,3.83
2022-08-25T12:32:57.453Z,4.05
2022-08-25T12:35:38.267Z,4.00
2022-08-25T12:38:16.512Z,2.95
2022-08-25T12:40:42.981Z,4.95
2022-08-25T12:43:12.650Z,2.58
2022-08-25T12:45:41.551Z,3.13
2022-08-25T12:48:26.394Z,2.55
2022-08-25T12:51:00.940Z,3.92
2022-08-25T12:53:41.197Z,2.78
2022-08-25T12:56:17.459Z,3.03
2022-08-25T12:59:00.903Z,3.72
2022-08-25T13:01:37.066Z,3.72
2022-08-25T13:04:09.804Z,4.32
2022-08-25T13:06:42.456Z,5.13
2022-08-25T13:09:39.771Z,3.28
2022-08-25T13:12:14.752Z,4.28
2022-08-25T13:14:44.058Z,3.10
2022-08-25T13:17:11.058Z,3.08
2022-08-25T13:19:37.782Z,5.30
2022-08-25T13:22:15.610Z,3.13
2022-08-25T13:24:44.354Z,3.80
2022-08-25T13:27:22.705Z,4.90
2022-08-25T13:29:51.129Z,3.10
2022-08-25T13:32:25.669Z,4.25
2022-08-25T13:35:30.900Z,5.88
2022-08-25T13:38:18.202Z,4.70
2022-08-25T13:40:44.947Z,3.50
2022-08-25T13:43:12.924Z,3.75
2022-08-25T13:45:44.206Z,2.85
2022-08-25T13:48:22.723Z,5.30
2022-08-25T13:50:52.952Z,7.45
2022-08-25T13:53:23.921Z,4.90
2022-08-25T13:55:51.952Z,4.97
2022-08-25T13:58:39.335Z,5.75
2022-08-25T14:01:19.983Z,4.32
2022-08-25T14:04:22.470Z,4.43
2022-08-25T14:06:49.598Z,3.53
2022-08-25T14:09:18.152Z,3.35
2022-08-25T14:11:47.085Z,3.20
2022-08-25T14:14:23.449Z,4.82
2022-08-25T14:17:22.217Z,5.68
2022-08-25T14:19:55.506Z,2.75
2022-08-25T14:22:22.004Z,4.70
2022-08-25T14:24:48.743Z,3.35
2022-08-25T14:27:16.598Z,4.25
2022-08-25T14:29:43.426Z,4.70
2022-08-25T14:32:10.876Z,3.50
2022-08-25T14:34:38.368Z,3.28
2022-08-25T14:37:09.816Z,3.42
2022-08-25T14:39:36.307Z,5.40
2022-08-25T14:42:03.083Z,4.00
2022-08-25T14:44:29.628Z,5.10
2022-08-25T14:46:58.056Z,3.45
2022-08-25T14:49:34.772Z,5.05
2022-08-25T14:52:04.483Z,5.32
2022-08-25T14:54:33.668Z,3.28
2022-08-25T14:57:02.448Z,3.63
2022-08-25T14:59:29.000Z,4.05
2022-08-25T15:01:56.097Z,3.55
2022-08-25T15:04:27.462Z,4.68
2022-08-25T15:06:58.476Z,7.15
2022-08-25T15:09:33.406Z,3.28
2022-08-25T15:12:00.448Z,5.07
2022-08-25T15:14:29.114Z,3.55
2022-08-25T15:17:00.470Z,3.95
2022-08-25T15:19:27.221Z,4.15
2022-08-25T15:21:54.235Z,4.13
2022-08-25T15:24:25.680Z,5.57
2022-08-25T15:29:22.193Z,3.67
2022-08-25T15:31:49.588Z,4.30
2022-08-25T15:34:17.181Z,5.15
2022-08-25T15:36:43.803Z,3.92
2022-08-25T15:39:10.572Z,3.92
2022-08-25T15:41:37.815Z,3.25
2022-08-25T15:44:06.231Z,2.92
2022-08-25T15:46:35.617Z,3.28
2022-08-25T15:49:02.189Z,4.32
2022-08-25T15:51:28.811Z,5.63
2022-08-25T15:53:55.587Z,6.30
2022-08-25T15:56:26.735Z,4.82
2022-08-25T15:58:54.252Z,3.17
2022-08-25T16:01:24.808Z,4.10
2022-08-25T16:03:51.443Z,3.97
2022-08-25T16:06:18.527Z,3.58
2022-08-25T16:08:45.072Z,4.97
2022-08-25T16:11:22.174Z,6.07
2022-08-25T16:13:49.120Z,3.78
2022-08-25T16:16:17.338Z,5.78
2022-08-25T16:18:44.656Z,3.60
2022-08-25T16:21:12.662Z,3.20
2022-08-25T16:23:39.813Z,3.67
2022-08-25T16:26:08.837Z,4.43
2022-08-25T16:28:43.810Z,3.70
2022-08-25T16:31:12.179Z,3.47
2022-08-25T16:33:38.751Z,3.63
2022-08-25T16:36:06.631Z,3.17
2022-08-25T16:38:33.774Z,3.53
2022-08-25T16:41:01.356Z,3.13
2022-08-25T16:43:29.465Z,3.80
2022-08-25T16:46:00.450Z,4.85
2022-08-25T16:48:27.912Z,7.15
2022-08-25T16:50:54.480Z,8.57
2022-08-25T16:53:39.862Z,2.97
2022-08-25T16:56:08.658Z,3.22
2022-08-25T16:58:37.905Z,3.38
2022-08-25T17:01:14.006Z,4.20
2022-08-25T17:03:43.881Z,6.28
2022-08-25T17:06:14.071Z,3.33
2022-08-25T17:08:41.829Z,3.58
2022-08-25T17:11:15.567Z,3.90
2022-08-25T17:13:44.808Z,6.40
2022-08-25T17:16:12.267Z,6.53
2022-08-25T17:18:41.247Z,3.20
2022-08-25T17:21:10.775Z,4.60
2022-08-25T17:23:43.530Z,3.53
2022-08-25T17:26:14.704Z,3.00
2022-08-25T17:28:41.766Z,3.38
2022-08-25T17:31:09.017Z,3.35
2022-08-25T17:33:35.874Z,3.80
2022-08-25T17:36:03.220Z,3.67
2022-08-25T17:38:30.145Z,3.67
2022-08-25T17:41:01.783Z,4.22
2022-08-25T17:43:29.494Z,5.40
2022-08-25T17:45:59.591Z,5.68
2022-08-25T17:48:27.047Z,3.05
2022-08-25T17:50:54.192Z,2.55
2022-08-25T17:53:20.703Z,3.72
2022-08-25T17:55:56.462Z,3.70
2022-08-25T17:58:22.986Z,3.25
2022-08-25T18:00:49.610Z,6.53
2022-08-25T18:03:16.049Z,2.83
2022-08-25T18:05:44.003Z,2.88
2022-08-25T18:08:11.057Z,3.15
2022-08-25T18:10:38.061Z,4.15
2022-08-25T18:13:05.056Z,5.15
2022-08-25T18:15:32.424Z,3.90
2022-08-25T18:17:58.921Z,6.97
2022-08-25T18:20:26.246Z,7.18
2022-08-25T18:22:54.761Z,4.45
2022-08-25T18:25:21.229Z,6.65
2022-08-25T18:27:47.720Z,9.25
2022-08-25T18:30:14.215Z,18.05
2022-08-25T18:32:40.687Z,11.13
2022-08-25T18:35:07.849Z,13.43
2022-08-25T18:37:53.118Z,16.38
2022-08-25T18:40:22.963Z,17.13
2022-08-25T18:42:50.797Z,5.63
2022-08-25T18:45:18.446Z,10.18
2022-08-25T18:47:45.377Z,11.52
2022-08-25T18:50:12.221Z,9.18
2022-08-25T18:52:39.822Z,12.25
2022-08-25T18:55:06.641Z,17.23
2022-08-25T18:57:33.931Z,12.88
2022-08-25T19:00:01.009Z,9.35
2022-08-25T19:02:27.776Z,8.00
2022-08-25T19:04:54.385Z,7.10
2022-08-25T19:07:20.890Z,5.63
2022-08-25T19:09:47.387Z,6.07
2022-08-25T19:12:22.462Z,6.38
2022-08-25T19:14:49.460Z,8.15
2022-08-25T19:17:17.145Z,4.20
2022-08-25T19:19:43.651Z,8.32
2022-08-25T19:22:31.826Z,5.47
2022-08-25T19:24:57.599Z,7.15
2022-08-25T19:27:25.274Z,6.00
2022-08-25T19:29:51.960Z,12.50
2022-08-25T19:32:18.525Z,9.05
2022-08-25T19:34:47.302Z,7.07
2022-08-25T19:37:18.093Z,6.45
2022-08-25T19:39:52.628Z,5.25
2022-08-25T19:42:35.075Z,6.18
2022-08-25T19:45:08.233Z,6.68
2022-08-25T19:47:34.765Z,6.47
2022-08-25T19:50:01.271Z,6.97
2022-08-25T19:52:27.841Z,6.00
2022-08-25T19:54:55.388Z,5.18
2022-08-25T19:57:28.320Z,11.15
2022-08-25T20:00:12.963Z,9.40
2022-08-25T20:02:39.673Z,6.70
2022-08-25T20:05:06.250Z,10.60
2022-08-25T20:07:33.289Z,6.40
2022-08-25T20:10:00.694Z,6.05
2022-08-25T20:12:27.877Z,5.85
2022-08-25T20:14:54.812Z,5.80
2022-08-25T20:17:24.832Z,9.20
2022-08-25T20:19:57.020Z,8.57
2022-08-25T20:22:26.213Z,6.57
2022-08-25T20:24:56.033Z,7.72
2022-08-25T20:27:27.265Z,5.13
2022-08-25T20:29:54.082Z,5.88
2022-08-25T20:32:20.989Z,5.03
2022-08-25T20:34:48.227Z,9.38
2022-08-25T20:37:14.750Z,6.55
2022-08-25T20:39:41.395Z,6.65
2022-08-25T20:42:08.060Z,5.53
2022-08-25T20:44:39.941Z,5.57
2022-08-25T20:47:10.209Z,6.55
2022-08-25T20:49:38.006Z,8.10
2022-08-25T20:52:05.006Z,5.63
2022-08-25T20:54:31.890Z,5.88
2022-08-25T20:56:59.368Z,5.05
2022-08-25T20:59:27.230Z,5.72
2022-08-25T21:01:54.152Z,7.43
2022-08-25T21:04:22.255Z,6.25
2022-08-25T21:06:49.768Z,7.45
2022-08-25T21:09:18.000Z,8.15
2022-08-25T21:11:45.061Z,8.65
2022-08-25T21:14:11.713Z,7.15
2022-08-25T21:16:38.703Z,7.75
2022-08-25T21:19:06.033Z,6.47
2022-08-25T21:21:37.443Z,7.78
2022-08-25T21:24:06.193Z,5.45
2022-08-25T21:26:35.428Z,5.65
2022-08-25T21:29:03.102Z,5.35
2022-08-25T21:31:31.043Z,6.57
2022-08-25T21:33:58.365Z,6.10
2022-08-25T21:36:25.720Z,7.05
2022-08-25T21:38:52.758Z,6.25
2022-08-25T21:41:21.287Z,6.95
2022-08-25T21:43:48.859Z,6.53
2022-08-25T21:46:17.238Z,7.82
2022-08-25T21:48:46.564Z,7.80
2022-08-25T21:51:15.399Z,7.20
2022-08-25T21:53:42.544Z,8.52
2022-08-25T21:56:10.906Z,6.18
2022-08-25T21:58:38.144Z,5.93
2022-08-25T22:01:05.998Z,8.70
2022-08-25T22:03:37.716Z,7.25
2022-08-25T22:06:06.581Z,10.43
2022-08-25T22:08:33.897Z,7.80
2022-08-25T22:11:01.178Z,6.70
2022-08-25T22:13:28.672Z,6.80
2022-08-25T22:15:56.251Z,8.93
2022-08-25T22:18:22.949Z,7.43
2022-08-25T22:20:50.277Z,6.35
2022-08-25T22:23:20.071Z,5.93
2022-08-25T22:25:47.599Z,7.22
2022-08-25T22:28:15.726Z,7.25
2022-08-25T22:30:42.770Z,5.70
2022-08-25T22:33:09.664Z,6.50
2022-08-25T22:35:36.209Z,5.47
2022-08-25T22:38:06.610Z,7.25
2022-08-25T22:40:33.977Z,7.07
2022-08-25T22:43:00.579Z,5.78
2022-08-25T22:45:28.038Z,5.25
2022-08-25T22:47:55.341Z,6.35
2022-08-25T22:50:21.845Z,6.18
2022-08-25T22:52:48.583Z,8.02
2022-08-25T22:55:15.539Z,5.60
2022-08-25T22:57:42.828Z,6.18
2022-08-25T23:00:11.712Z,6.80
2022-08-25T23:02:38.453Z,6.40
2022-08-25T23:05:05.766Z,6.43
2022-08-25T23:07:34.843Z,5.07
2022-08-25T23:10:03.255Z,5.80
2022-08-25T23:12:29.958Z,6.35
2022-08-25T23:14:56.580Z,6.63
2022-08-25T23:17:23.103Z,10.48
2022-08-25T23:19:49.603Z,6.85
2022-08-25T23:22:17.500Z,10.38
2022-08-25T23:24:46.225Z,8.80
2022-08-25T23:27:13.956Z,6.95
2022-08-25T23:29:44.121Z,6.72
2022-08-25T23:32:14.034Z,5.63
2022-08-25T23:34:46.536Z,5.60
2022-08-25T23:37:14.281Z,8.68
2022-08-25T23:39:40.778Z,5.65
2022-08-25T23:42:08.367Z,4.70
2022-08-25T23:44:36.652Z,5.82
2022-08-25T23:47:05.089Z,7.00
2022-08-25T23:49:32.276Z,6.05
2022-08-25T23:51:59.937Z,6.15
2022-08-25T23:54:31.446Z,5.35
2022-08-25T23:56:58.417Z,8.75
2022-08-25T23:59:25.634Z,4.63
